Главная страница
METAR-TAF:

METAR-TAF

Аэропорты :

Йоэнсуу, Финляндия

широта: 62-40N, долгота: 029-38E, высота над уровнем моря: 119 м

Текущие метеонаблюдения

Эта сводка был подготовлена 20 минут назад, в 02:50 UTC
Ветер 4 Узел от юго-юго-восточный
Температура 14°C
Влажность 94%
Давление 1020 hPa
Видимость 10 км и более
небольшая облачность на высоте 4500 фута

METAR: EFJO 170250Z 16004KT 9999 FEW045 14/13 Q1020

Время: 06:10 (03:10 UTC)

Прогноз

Эта сводка был подготовлена 39 минут назад, в 02:31 UTC
Прогноз действительный с 17-го 03 UTC до 17-го 12 UTC
Ветер 8 Узел от южный
Видимость 10 км и более
Нет облачности ниже 1500 м, и нет кучево-дождевой облачности
временами
С 17-го 09 UTC до 17-го 12 UTC
Ветер 10 Узел от южный с порывами до 20 Узел

TAF: EFJO 170231Z 1703/1712 19008KT CAVOK TEMPO 1709/1712 19010G20KT

Метеонаблюдения и прогнозы для более 4000 аэропортов (сводки METAR и TAF).

Имеющиеся станции представлены на карте желтыми и красными точками.

Чтобы увидеть название станции, наведите на нее мышь.

Затем щелкните, чтобы увидеть метеонаблюдения и метеопрогнозы.

Управление картой: чтобы увеличить масштаб, щелкните зеленые кнопки с черным крестиком; чтобы уменьшить масштаб, щелкните зеленую кнопку с тире; для просмотра соседних карт щелкайте зеленые стрелки.


METAR-TAF: